createdAt,value
2023-04-15T00:01:06.984Z,5.50
2023-04-15T00:03:34.730Z,3.50
2023-04-15T00:06:02.455Z,5.60
2023-04-15T00:08:30.169Z,5.73
2023-04-15T00:10:59.443Z,6.77
2023-04-15T00:13:26.557Z,4.10
2023-04-15T00:15:53.460Z,7.70
2023-04-15T00:18:20.425Z,6.10
2023-04-15T00:20:47.730Z,7.13
2023-04-15T00:23:14.681Z,4.53
2023-04-15T00:25:41.768Z,5.80
2023-04-15T00:28:08.710Z,7.23
2023-04-15T00:30:35.654Z,4.27
2023-04-15T00:33:03.728Z,4.93
2023-04-15T00:35:33.938Z,4.67
2023-04-15T00:38:01.415Z,4.40
2023-04-15T00:40:28.416Z,5.77
2023-04-15T00:42:55.513Z,4.70
2023-04-15T00:45:23.356Z,6.23
2023-04-15T00:47:51.977Z,7.70
2023-04-15T00:50:19.176Z,4.77
2023-04-15T00:52:46.169Z,6.57
2023-04-15T00:55:13.895Z,5.27
2023-04-15T00:57:41.632Z,4.63
2023-04-15T01:00:11.452Z,5.87
2023-04-15T01:02:39.227Z,5.00
2023-04-15T01:05:07.686Z,5.23
2023-04-15T01:07:34.718Z,5.53
2023-04-15T01:10:04.215Z,6.63
2023-04-15T01:12:34.406Z,10.33
2023-04-15T01:15:02.720Z,5.43
2023-04-15T01:17:30.146Z,7.17
2023-04-15T01:19:58.040Z,7.37
2023-04-15T01:22:27.772Z,7.97
2023-04-15T01:25:02.426Z,7.00
2023-04-15T01:27:31.308Z,10.03
2023-04-15T01:29:58.508Z,8.27
2023-04-15T01:32:25.681Z,7.97
2023-04-15T01:34:52.834Z,9.50
2023-04-15T01:37:22.959Z,9.23
2023-04-15T01:39:51.655Z,7.40
2023-04-15T01:42:18.632Z,8.53
2023-04-15T01:44:45.593Z,6.57
2023-04-15T01:47:12.848Z,8.87
2023-04-15T01:49:39.804Z,6.63
2023-04-15T01:52:07.038Z,6.57
2023-04-15T01:54:34.782Z,7.70
2023-04-15T01:57:02.283Z,6.80
2023-04-15T01:59:29.726Z,8.13
2023-04-15T02:01:57.464Z,10.30
2023-04-15T02:04:25.582Z,6.80
2023-04-15T02:06:52.558Z,7.43
2023-04-15T02:09:21.856Z,7.27
2023-04-15T02:11:48.870Z,6.43
2023-04-15T02:14:15.783Z,6.03
2023-04-15T02:16:42.878Z,5.60
2023-04-15T02:19:09.912Z,6.80
2023-04-15T02:21:38.148Z,7.07
2023-04-15T02:24:05.313Z,9.80
2023-04-15T02:26:33.536Z,7.53
2023-04-15T02:29:00.940Z,8.67
2023-04-15T02:31:28.323Z,7.83
2023-04-15T02:33:55.345Z,9.63
2023-04-15T02:36:23.917Z,7.47
2023-04-15T02:38:51.418Z,7.90
2023-04-15T02:41:20.351Z,9.43
2023-04-15T02:43:47.370Z,9.03
2023-04-15T02:46:15.073Z,6.73
2023-04-15T02:48:42.231Z,8.90
2023-04-15T02:51:20.019Z,8.70
2023-04-15T02:53:48.917Z,8.83
2023-04-15T02:56:17.192Z,6.27
2023-04-15T02:58:45.828Z,7.47
2023-04-15T03:01:13.621Z,9.10
2023-04-15T03:03:41.713Z,7.20
2023-04-15T03:06:09.132Z,8.23
2023-04-15T03:08:37.025Z,7.53
2023-04-15T03:11:05.105Z,7.90
2023-04-15T03:13:33.370Z,7.17
2023-04-15T03:16:07.154Z,9.87
2023-04-15T03:18:34.559Z,10.10
2023-04-15T03:21:03.789Z,7.10
2023-04-15T03:23:35.013Z,8.17
2023-04-15T03:26:03.817Z,7.60
2023-04-15T03:28:32.898Z,8.27
2023-04-15T03:31:01.142Z,7.70
2023-04-15T03:33:28.387Z,9.50
2023-04-15T03:35:55.331Z,8.73
2023-04-15T03:38:22.268Z,9.77
2023-04-15T03:40:49.151Z,6.87
2023-04-15T03:43:16.564Z,6.53
2023-04-15T03:45:43.529Z,6.97
2023-04-15T03:48:16.688Z,7.70
2023-04-15T03:50:44.578Z,9.00
2023-04-15T03:53:11.519Z,9.47
2023-04-15T03:55:38.608Z,10.10
2023-04-15T03:58:05.663Z,9.63
2023-04-15T04:00:32.691Z,9.13
2023-04-15T04:02:59.900Z,7.63
2023-04-15T04:05:26.980Z,8.40
2023-04-15T04:07:53.930Z,8.13
2023-04-15T04:10:20.962Z,8.57
2023-04-15T04:12:47.873Z,7.50
2023-04-15T04:15:14.801Z,7.77
2023-04-15T04:17:42.335Z,8.27
2023-04-15T04:20:09.770Z,8.90
2023-04-15T04:22:41.297Z,8.10
2023-04-15T04:25:12.574Z,8.83
2023-04-15T04:27:39.579Z,10.70
2023-04-15T04:30:08.110Z,8.33
2023-04-15T04:32:35.047Z,10.30
2023-04-15T04:35:01.935Z,9.43
2023-04-15T04:37:28.969Z,8.90
2023-04-15T04:39:56.278Z,8.47
2023-04-15T04:42:23.398Z,8.73
2023-04-15T04:44:50.288Z,7.30
2023-04-15T04:47:17.261Z,9.67
2023-04-15T04:49:44.136Z,6.90
2023-04-15T04:52:11.821Z,10.07
2023-04-15T04:54:38.728Z,8.23
2023-04-15T04:57:07.825Z,8.30
2023-04-15T04:59:34.811Z,9.53
2023-04-15T05:02:02.114Z,7.80
2023-04-15T05:04:29.053Z,9.60
2023-04-15T05:06:56.305Z,8.37
2023-04-15T05:09:23.476Z,9.23
2023-04-15T05:11:50.467Z,9.63
2023-04-15T05:14:17.342Z,7.53
2023-04-15T05:16:44.323Z,7.43
2023-04-15T05:19:11.239Z,7.30
2023-04-15T05:21:39.521Z,9.23
2023-04-15T05:24:07.173Z,9.20
2023-04-15T05:26:34.112Z,8.13
2023-04-15T05:29:01.262Z,9.27
2023-04-15T05:31:28.509Z,10.93
2023-04-15T05:33:55.666Z,9.87
2023-04-15T05:36:22.590Z,10.33
2023-04-15T05:38:49.608Z,8.53
2023-04-15T05:41:19.087Z,10.70
2023-04-15T05:43:48.430Z,10.07
2023-04-15T05:46:16.051Z,8.77
2023-04-15T05:48:43.004Z,9.80
2023-04-15T05:51:10.506Z,8.23
2023-04-15T05:53:37.594Z,9.30
2023-04-15T05:56:04.909Z,9.93
2023-04-15T05:58:31.833Z,10.63
2023-04-15T06:00:58.925Z,8.90
2023-04-15T06:03:26.375Z,8.53
2023-04-15T06:05:54.375Z,8.40
2023-04-15T06:08:21.922Z,8.57
2023-04-15T06:10:48.927Z,12.63
2023-04-15T06:13:17.842Z,10.93
2023-04-15T06:15:45.045Z,7.57
2023-04-15T06:18:11.974Z,10.10
2023-04-15T06:20:39.014Z,8.53
2023-04-15T06:23:06.195Z,8.93
2023-04-15T06:25:33.255Z,8.77
2023-04-15T06:28:00.322Z,12.13
2023-04-15T06:30:27.359Z,7.87
2023-04-15T06:32:55.800Z,9.10
2023-04-15T06:35:23.173Z,8.43
2023-04-15T06:37:50.288Z,8.83
2023-04-15T06:40:17.781Z,8.47
2023-04-15T06:42:45.444Z,11.10
2023-04-15T06:45:12.407Z,9.40
2023-04-15T06:47:39.386Z,8.37
2023-04-15T06:50:06.863Z,8.57
2023-04-15T06:52:33.843Z,8.57
2023-04-15T06:55:02.267Z,8.47
2023-04-15T06:57:29.305Z,7.77
2023-04-15T06:59:56.469Z,7.77
2023-04-15T07:02:23.741Z,7.60
2023-04-15T07:04:51.230Z,8.37
2023-04-15T07:07:18.310Z,7.13
2023-04-15T07:09:45.294Z,9.17
2023-04-15T07:12:12.353Z,7.90
2023-04-15T07:14:39.309Z,9.40
2023-04-15T07:17:06.757Z,9.40
2023-04-15T07:19:33.763Z,7.97
2023-04-15T07:22:01.218Z,7.70
2023-04-15T07:24:28.169Z,6.80
2023-04-15T07:26:59.403Z,7.70
2023-04-15T07:29:27.706Z,8.30
2023-04-15T07:31:54.678Z,8.93
2023-04-15T07:34:21.799Z,7.57
2023-04-15T07:36:51.995Z,8.60
2023-04-15T07:39:19.093Z,6.87
2023-04-15T07:41:46.636Z,7.60
2023-04-15T07:44:13.700Z,7.67
2023-04-15T07:46:41.178Z,6.93
2023-04-15T07:49:08.285Z,6.57
2023-04-15T07:51:35.194Z,8.10
2023-04-15T07:54:03.092Z,7.00
2023-04-15T07:56:30.362Z,6.60
2023-04-15T07:58:58.940Z,7.93
2023-04-15T08:01:26.847Z,7.03
2023-04-15T08:03:53.967Z,6.40
2023-04-15T08:06:20.945Z,6.30
2023-04-15T08:08:48.286Z,6.33
2023-04-15T08:11:15.672Z,8.47
2023-04-15T08:13:42.653Z,5.67
2023-04-15T08:16:23.544Z,6.03
2023-04-15T08:18:52.796Z,5.77
2023-04-15T08:21:20.368Z,4.93
2023-04-15T08:23:52.420Z,5.67
2023-04-15T08:26:21.129Z,6.93
2023-04-15T08:28:49.315Z,8.03
2023-04-15T08:31:19.097Z,6.20
2023-04-15T08:33:46.832Z,6.40
2023-04-15T08:36:14.232Z,5.33
2023-04-15T08:38:41.472Z,5.97
2023-04-15T08:41:20.815Z,5.73
2023-04-15T08:44:01.225Z,6.10
2023-04-15T08:46:29.253Z,5.30
2023-04-15T08:48:58.743Z,4.53
2023-04-15T08:51:27.613Z,5.50
2023-04-15T08:53:55.136Z,7.63
2023-04-15T08:56:27.260Z,5.17
2023-04-15T08:58:54.882Z,5.33
2023-04-15T09:01:22.853Z,9.00
2023-04-15T09:03:50.752Z,6.27
2023-04-15T09:06:18.685Z,6.20
2023-04-15T09:08:45.793Z,5.77
2023-04-15T09:11:13.294Z,4.40
2023-04-15T09:13:40.763Z,6.10
2023-04-15T09:16:08.563Z,6.87
2023-04-15T09:18:39.032Z,4.77
2023-04-15T09:21:17.661Z,4.30
2023-04-15T09:24:02.445Z,3.30
2023-04-15T09:26:40.126Z,4.47
2023-04-15T09:29:15.022Z,4.80
2023-04-15T09:31:43.507Z,3.90
2023-04-15T09:34:10.731Z,5.27
2023-04-15T09:36:57.003Z,4.70
2023-04-15T09:39:24.259Z,3.50
2023-04-15T09:42:09.769Z,3.63
2023-04-15T09:44:37.573Z,3.20
2023-04-15T09:47:04.675Z,3.20
2023-04-15T09:49:31.651Z,4.50
2023-04-15T09:52:05.616Z,3.97
2023-04-15T09:54:38.723Z,3.27
2023-04-15T09:57:12.246Z,4.03
2023-04-15T09:59:39.756Z,3.47
2023-04-15T10:02:08.810Z,5.47
2023-04-15T10:04:41.610Z,5.37
2023-04-15T10:07:12.993Z,4.17
2023-04-15T10:09:40.866Z,7.88
2023-04-15T10:12:08.936Z,4.15
2023-04-15T10:14:38.816Z,3.40
2023-04-15T10:17:08.316Z,6.77
2023-04-15T10:19:37.874Z,4.45
2023-04-15T10:22:06.707Z,4.07
2023-04-15T10:24:34.092Z,4.57
2023-04-15T10:27:04.435Z,3.35
2023-04-15T10:29:31.847Z,4.68
2023-04-15T10:32:01.427Z,3.13
2023-04-15T10:34:31.170Z,3.67
2023-04-15T10:37:04.755Z,3.90
2023-04-15T10:39:34.916Z,3.13
2023-04-15T10:42:13.966Z,3.53
2023-04-15T10:44:45.555Z,3.03
2023-04-15T10:47:18.669Z,4.38
2023-04-15T10:49:58.858Z,2.88
2023-04-15T10:52:28.858Z,3.72
2023-04-15T10:55:11.146Z,4.20
2023-04-15T10:57:40.113Z,2.72
2023-04-15T11:00:20.196Z,4.32
2023-04-15T11:03:09.862Z,3.58
2023-04-15T11:05:42.807Z,2.95
2023-04-15T11:08:11.729Z,5.85
2023-04-15T11:10:38.481Z,3.28
2023-04-15T11:13:11.381Z,2.15
2023-04-15T11:15:45.075Z,1.90
2023-04-15T11:18:17.423Z,2.28
2023-04-15T11:20:57.559Z,1.95
2023-04-15T11:23:48.725Z,3.55
2023-04-15T11:26:15.791Z,2.90
2023-04-15T11:28:45.801Z,2.78
2023-04-15T11:31:16.690Z,3.45
2023-04-15T11:34:01.524Z,3.17
2023-04-15T11:36:32.083Z,3.15
2023-04-15T11:39:00.547Z,3.70
2023-04-15T11:41:27.534Z,3.45
2023-04-15T11:43:54.579Z,3.15
2023-04-15T11:46:22.724Z,3.83
2023-04-15T11:48:50.073Z,3.67
2023-04-15T11:51:17.116Z,2.67
2023-04-15T11:53:50.048Z,3.33
2023-04-15T11:56:26.228Z,2.97
2023-04-15T11:58:59.559Z,2.50
2023-04-15T12:01:43.847Z,2.95
2023-04-15T12:04:17.627Z,2.97
2023-04-15T12:06:45.992Z,2.33
2023-04-15T12:09:17.341Z,2.63
2023-04-15T12:11:55.500Z,3.00
2023-04-15T12:14:31.269Z,3.80
2023-04-15T12:17:06.738Z,4.43
2023-04-15T12:19:43.221Z,3.00
2023-04-15T12:22:16.400Z,2.40
2023-04-15T12:24:47.945Z,2.53
2023-04-15T12:27:17.446Z,4.82
2023-04-15T12:29:44.708Z,1.85
2023-04-15T12:32:16.938Z,2.47
2023-04-15T12:34:51.776Z,2.63
2023-04-15T12:37:19.540Z,2.67
2023-04-15T12:39:49.594Z,2.92
2023-04-15T12:42:17.747Z,4.03
2023-04-15T12:44:44.964Z,3.22
2023-04-15T12:47:12.713Z,2.53
2023-04-15T12:49:40.975Z,2.10
2023-04-15T12:52:08.730Z,3.47
2023-04-15T12:54:36.356Z,2.00
2023-04-15T12:57:06.758Z,2.35
2023-04-15T12:59:35.078Z,2.20
2023-04-15T13:02:02.929Z,3.13
2023-04-15T13:04:31.308Z,1.75
2023-04-15T13:06:58.696Z,2.72
2023-04-15T13:09:25.888Z,2.42
2023-04-15T13:11:53.116Z,4.75
2023-04-15T13:14:20.489Z,2.22
2023-04-15T13:16:47.665Z,2.33
2023-04-15T13:19:14.871Z,3.38
2023-04-15T13:21:41.802Z,2.95
2023-04-15T13:24:09.828Z,3.20
2023-04-15T13:26:37.687Z,2.05
2023-04-15T13:29:04.886Z,2.90
2023-04-15T13:31:32.009Z,2.67
2023-04-15T13:33:59.084Z,2.10
2023-04-15T13:36:27.242Z,2.33
2023-04-15T13:38:54.722Z,3.35
2023-04-15T13:41:21.953Z,2.50
2023-04-15T13:43:49.061Z,1.70
2023-04-15T13:46:16.240Z,2.60
2023-04-15T13:48:43.413Z,1.60
2023-04-15T13:51:10.416Z,2.75
2023-04-15T13:53:39.226Z,2.05
2023-04-15T13:56:10.625Z,2.10
2023-04-15T13:58:38.691Z,2.33
2023-04-15T14:01:07.086Z,1.83
2023-04-15T14:03:38.058Z,2.35
2023-04-15T14:06:06.322Z,2.38
2023-04-15T14:08:33.535Z,2.83
2023-04-15T14:11:00.844Z,3.00
2023-04-15T14:13:27.919Z,1.73
2023-04-15T14:15:55.396Z,1.65
2023-04-15T14:18:22.452Z,4.20
2023-04-15T14:20:49.410Z,4.35
2023-04-15T14:23:16.357Z,2.47
2023-04-15T14:25:45.071Z,3.40
2023-04-15T14:28:14.020Z,1.60
2023-04-15T14:30:40.933Z,1.58
2023-04-15T14:33:07.917Z,2.78
2023-04-15T14:35:35.218Z,3.20
2023-04-15T14:38:02.136Z,2.13
2023-04-15T14:40:29.239Z,2.03
2023-04-15T14:42:56.291Z,2.08
2023-04-15T14:45:23.315Z,1.83
2023-04-15T14:47:50.407Z,2.47
2023-04-15T14:50:17.699Z,2.05
2023-04-15T14:52:45.396Z,2.30
2023-04-15T14:55:13.537Z,4.35
2023-04-15T14:57:42.291Z,1.40
2023-04-15T15:00:13.763Z,2.78
2023-04-15T15:02:43.848Z,2.90
2023-04-15T15:05:12.145Z,3.17
2023-04-15T15:07:40.893Z,2.33
2023-04-15T15:10:08.596Z,2.42
2023-04-15T15:12:35.765Z,1.63
2023-04-15T15:15:15.480Z,2.38
2023-04-15T15:17:48.764Z,2.88
2023-04-15T15:20:16.698Z,2.30
2023-04-15T15:22:43.958Z,2.50
2023-04-15T15:25:10.983Z,1.40
2023-04-15T15:27:38.460Z,2.63
2023-04-15T15:30:06.942Z,2.60
2023-04-15T15:32:34.716Z,2.83
2023-04-15T15:35:02.947Z,1.30
2023-04-15T15:37:31.465Z,2.20
2023-04-15T15:39:58.761Z,2.38
2023-04-15T15:42:26.371Z,1.50
2023-04-15T15:44:53.264Z,1.50
2023-04-15T15:47:22.443Z,1.08
2023-04-15T15:49:49.645Z,1.35
2023-04-15T15:52:16.682Z,2.60
2023-04-15T15:54:43.698Z,2.40
2023-04-15T15:57:11.437Z,1.42
2023-04-15T15:59:44.020Z,1.50
2023-04-15T16:02:13.427Z,0.98
2023-04-15T16:04:43.183Z,2.42
2023-04-15T16:07:11.912Z,2.05
2023-04-15T16:09:41.175Z,1.65
2023-04-15T16:12:08.180Z,2.95
2023-04-15T16:14:35.352Z,1.45
2023-04-15T16:17:02.540Z,3.13
2023-04-15T16:19:29.551Z,2.20
2023-04-15T16:21:58.037Z,2.83
2023-04-15T16:24:25.854Z,3.77
2023-04-15T16:26:52.955Z,2.53
2023-04-15T16:29:20.643Z,2.17
2023-04-15T16:31:47.991Z,2.70
2023-04-15T16:34:16.060Z,1.50
2023-04-15T16:36:43.524Z,2.40
2023-04-15T16:39:10.442Z,2.77
2023-04-15T16:41:38.534Z,1.90
2023-04-15T16:44:08.335Z,4.87
2023-04-15T16:46:35.319Z,1.87
2023-04-15T16:49:02.262Z,3.17
2023-04-15T16:51:31.525Z,2.77
2023-04-15T16:53:58.793Z,3.93
2023-04-15T16:56:26.194Z,5.37
2023-04-15T16:58:53.416Z,4.17
2023-04-15T17:01:21.588Z,4.03
2023-04-15T17:03:48.908Z,3.40
2023-04-15T17:06:16.524Z,4.17
2023-04-15T17:08:44.726Z,2.57
2023-04-15T17:11:12.399Z,3.27
2023-04-15T17:13:39.394Z,5.53
2023-04-15T17:16:06.666Z,6.17
2023-04-15T17:18:33.664Z,4.40
2023-04-15T17:21:00.894Z,2.33
2023-04-15T17:23:27.921Z,3.80
2023-04-15T17:25:54.933Z,2.53
2023-04-15T17:28:22.147Z,4.20
2023-04-15T17:30:49.199Z,5.20
2023-04-15T17:33:26.156Z,3.50
2023-04-15T17:36:03.399Z,4.83
2023-04-15T17:38:30.496Z,4.00
2023-04-15T17:40:57.527Z,5.67
2023-04-15T17:43:24.460Z,7.17
2023-04-15T17:45:52.194Z,6.30
2023-04-15T17:48:19.127Z,4.13
2023-04-15T17:50:46.522Z,5.63
2023-04-15T17:53:13.725Z,4.63
2023-04-15T17:55:40.718Z,3.33
2023-04-15T17:58:08.774Z,8.80
2023-04-15T18:00:35.725Z,5.90
2023-04-15T18:03:03.342Z,5.33
2023-04-15T18:05:30.540Z,2.57
2023-04-15T18:07:57.482Z,3.60
2023-04-15T18:10:24.566Z,3.90
2023-04-15T18:12:51.950Z,4.50
2023-04-15T18:15:19.456Z,4.13
2023-04-15T18:17:48.794Z,4.07
2023-04-15T18:20:15.969Z,5.17
2023-04-15T18:22:43.568Z,7.63
2023-04-15T18:25:10.814Z,4.53
2023-04-15T18:27:41.268Z,4.37
2023-04-15T18:30:11.034Z,2.20
2023-04-15T18:32:38.974Z,4.20
2023-04-15T18:35:06.742Z,7.67
2023-04-15T18:37:33.910Z,3.97
2023-04-15T18:40:01.016Z,4.60
2023-04-15T18:42:27.982Z,5.67
2023-04-15T18:44:55.916Z,4.07
2023-04-15T18:47:23.835Z,3.83
2023-04-15T18:49:52.369Z,3.50
2023-04-15T18:52:19.352Z,2.43
2023-04-15T18:54:46.294Z,3.93
2023-04-15T18:57:13.231Z,3.57
2023-04-15T18:59:43.308Z,3.93
2023-04-15T19:02:10.318Z,3.43
2023-04-15T19:04:37.404Z,3.23
2023-04-15T19:07:04.612Z,5.80
2023-04-15T19:09:31.787Z,5.53
2023-04-15T19:11:58.681Z,4.03
2023-04-15T19:14:25.750Z,2.80
2023-04-15T19:16:52.800Z,4.50
2023-04-15T19:19:19.896Z,6.10
2023-04-15T19:21:49.759Z,4.70
2023-04-15T19:24:20.159Z,7.63
2023-04-15T19:26:51.152Z,5.43
2023-04-15T19:29:18.585Z,10.50
2023-04-15T19:31:45.660Z,6.47
2023-04-15T19:34:12.636Z,6.70
2023-04-15T19:36:39.627Z,4.97
2023-04-15T19:39:06.795Z,8.77
2023-04-15T19:41:33.889Z,3.30
2023-04-15T19:44:00.905Z,6.77
2023-04-15T19:46:27.976Z,4.73
2023-04-15T19:48:55.637Z,6.23
2023-04-15T19:51:22.994Z,5.07
2023-04-15T19:53:49.944Z,7.90
2023-04-15T19:56:16.961Z,5.47
2023-04-15T19:58:46.791Z,7.47
2023-04-15T20:01:13.892Z,5.77
2023-04-15T20:03:40.989Z,6.47
2023-04-15T20:06:08.112Z,3.03
2023-04-15T20:08:35.077Z,8.27
2023-04-15T20:11:02.111Z,5.80
2023-04-15T20:13:29.289Z,5.03
2023-04-15T20:15:56.230Z,4.30
2023-04-15T20:18:23.199Z,7.07
2023-04-15T20:20:50.750Z,6.00
2023-04-15T20:23:17.731Z,4.83
2023-04-15T20:25:44.777Z,3.87
2023-04-15T20:28:11.914Z,3.60
2023-04-15T20:30:39.583Z,4.70
2023-04-15T20:33:08.191Z,4.10
2023-04-15T20:35:36.208Z,6.77
2023-04-15T20:38:04.449Z,6.17
2023-04-15T20:40:33.792Z,9.70
2023-04-15T20:43:01.239Z,5.63
2023-04-15T20:45:28.196Z,5.87
2023-04-15T20:47:56.172Z,6.67
2023-04-15T20:50:23.264Z,4.27
2023-04-15T20:52:50.515Z,5.00
2023-04-15T20:55:18.391Z,5.70
2023-04-15T20:57:45.524Z,5.13
2023-04-15T21:00:12.893Z,6.80
2023-04-15T21:02:40.042Z,6.63
2023-04-15T21:05:08.019Z,6.87
2023-04-15T21:07:34.895Z,6.40
2023-04-15T21:10:02.026Z,7.17
2023-04-15T21:12:29.030Z,3.93
2023-04-15T21:14:55.974Z,6.97
2023-04-15T21:17:22.914Z,5.10
2023-04-15T21:19:50.784Z,4.27
2023-04-15T21:22:17.660Z,5.30
2023-04-15T21:24:44.577Z,4.57
2023-04-15T21:27:11.494Z,6.00
2023-04-15T21:29:40.450Z,6.43
2023-04-15T21:32:07.442Z,6.50
2023-04-15T21:34:34.636Z,5.50
2023-04-15T21:37:02.026Z,5.50
2023-04-15T21:39:28.967Z,6.63
2023-04-15T21:41:57.916Z,7.77
2023-04-15T21:44:25.753Z,4.87
2023-04-15T21:46:52.732Z,6.33
2023-04-15T21:49:20.797Z,8.27
2023-04-15T21:51:48.004Z,7.17
2023-04-15T21:54:15.367Z,5.67
2023-04-15T21:56:43.146Z,6.77
2023-04-15T21:59:10.105Z,2.83
2023-04-15T22:01:37.130Z,5.43
2023-04-15T22:04:05.866Z,3.80
2023-04-15T22:06:34.150Z,5.63
2023-04-15T22:09:01.084Z,5.67
2023-04-15T22:11:28.832Z,4.03
2023-04-15T22:13:57.826Z,5.20
2023-04-15T22:16:28.655Z,4.87
2023-04-15T22:18:56.193Z,6.77
2023-04-15T22:21:23.609Z,6.40
2023-04-15T22:23:51.577Z,6.17
2023-04-15T22:26:18.514Z,4.63
2023-04-15T22:28:45.865Z,7.83
2023-04-15T22:31:13.703Z,5.73
2023-04-15T22:33:41.228Z,8.10
2023-04-15T22:36:08.177Z,7.13
2023-04-15T22:38:35.536Z,4.40
2023-04-15T22:41:02.501Z,6.73
2023-04-15T22:43:29.406Z,9.23
2023-04-15T22:45:56.732Z,5.37
2023-04-15T22:48:23.763Z,8.17
2023-04-15T22:50:50.763Z,4.03
2023-04-15T22:53:18.135Z,6.63
2023-04-15T22:55:49.281Z,3.20
2023-04-15T22:58:18.338Z,8.87
2023-04-15T23:00:46.002Z,8.17
2023-04-15T23:03:13.240Z,4.23
2023-04-15T23:05:41.190Z,7.93
2023-04-15T23:08:08.435Z,3.63
2023-04-15T23:10:35.575Z,3.50
2023-04-15T23:13:02.685Z,3.47
2023-04-15T23:15:29.629Z,5.87
2023-04-15T23:17:56.827Z,4.53
2023-04-15T23:20:23.812Z,6.80
2023-04-15T23:22:50.821Z,3.33
2023-04-15T23:25:22.123Z,3.30
2023-04-15T23:27:49.078Z,4.23
2023-04-15T23:30:16.301Z,9.10
2023-04-15T23:32:43.396Z,2.43
2023-04-15T23:35:10.590Z,3.57
2023-04-15T23:37:37.534Z,4.07
2023-04-15T23:40:05.574Z,5.07
2023-04-15T23:42:33.094Z,4.73
2023-04-15T23:45:00.299Z,3.73
2023-04-15T23:47:27.366Z,4.70
2023-04-15T23:49:54.321Z,5.23
2023-04-15T23:52:21.295Z,4.27
2023-04-15T23:54:48.206Z,3.63
2023-04-15T23:57:15.130Z,5.77
2023-04-15T23:59:42.117Z,4.67
